Time;durP1;ratioP1;P1;durP2;ratioP2;P2;SDS_P1;SDS_P2;PMS_P1;PMS_P2;Temp;Humidity;BMP_temperature;BMP_pressure;BME280_temperature;BME280_humidity;BME280_pressure;Samples;Min_cycle;Max_cycle;Signal;HPM_P1;HPM_P2
2023/04/23 00:01:46;;;;;;;1.23;0.95;;;;;;;22.57;37.48;100721.66;5021478;27;97168;-74
2023/04/23 00:04:16;;;;;;;1.05;0.90;;;;;;;22.56;37.49;100717.22;5021630;27;97935;-73
2023/04/23 00:06:45;;;;;;;1.40;1.10;;;;;;;22.57;37.12;100716.19;5002471;28;96548;-74
2023/04/23 00:09:14;;;;;;;1.13;1.00;;;;;;;22.58;37.32;100715.16;5006982;27;96505;-74
2023/04/23 00:11:41;;;;;;;1.08;0.98;;;;;;;22.56;37.45;100707.13;5016731;27;97218;-74
2023/04/23 00:14:08;;;;;;;0.73;0.73;;;;;;;22.57;37.44;100706.09;5026341;27;96600;-73
2023/04/23 00:16:35;;;;;;;0.98;0.88;;;;;;;22.58;37.29;100704.19;5017797;27;98700;-74
2023/04/23 00:19:02;;;;;;;1.00;0.90;;;;;;;22.57;37.31;100694.28;5015188;27;96720;-72
2023/04/23 00:21:28;;;;;;;0.80;0.80;;;;;;;22.57;37.55;100692.41;5016558;27;96462;-74
2023/04/23 00:23:55;;;;;;;1.10;1.00;;;;;;;22.58;37.24;100698.72;5019998;27;96972;-73
2023/04/23 00:26:21;;;;;;;1.38;1.10;;;;;;;22.58;37.17;100690.50;5017360;27;97593;-74
2023/04/23 00:28:48;;;;;;;0.82;0.80;;;;;;;22.59;37.33;100694.94;5013914;27;96943;-74
2023/04/23 00:31:14;;;;;;;1.00;0.90;;;;;;;22.58;37.43;100690.50;5013167;27;96706;-74
2023/04/23 00:33:41;;;;;;;1.30;1.02;;;;;;;22.58;37.32;100694.09;5013577;27;97829;-74
2023/04/23 00:36:07;;;;;;;1.10;0.82;;;;;;;22.58;37.39;100688.63;5009748;27;97828;-74
2023/04/23 00:38:34;;;;;;;1.00;0.85;;;;;;;22.59;37.19;100687.59;5018299;27;96741;-74
2023/04/23 00:41:01;;;;;;;0.82;0.80;;;;;;;22.58;37.16;100683.16;5015459;27;96754;-74
2023/04/23 00:43:28;;;;;;;1.30;1.00;;;;;;;22.59;37.44;100673.06;5012118;27;97384;-74
2023/04/23 00:45:54;;;;;;;1.00;0.90;;;;;;;22.59;37.38;100664.84;4996699;27;97264;-74
2023/04/23 00:48:21;;;;;;;1.10;1.00;;;;;;;22.60;37.74;100672.00;5019295;27;96727;-74
2023/04/23 00:50:47;;;;;;;0.95;0.85;;;;;;;22.60;37.23;100672.00;5018272;27;96724;-74
2023/04/23 00:53:14;;;;;;;1.10;1.00;;;;;;;22.59;37.74;100668.44;5001877;27;97769;-74
2023/04/23 00:55:41;;;;;;;0.85;0.80;;;;;;;22.59;37.37;100665.69;5022913;27;99718;-72
2023/04/23 00:58:07;;;;;;;1.20;1.10;;;;;;;22.59;37.48;100660.22;5023256;27;99057;-74
2023/04/23 01:00:43;;;;;;;1.05;0.90;;;;;;;22.60;37.38;100664.66;5003811;27;97033;-74
2023/04/23 01:03:09;;;;;;;;;;;;;;;22.56;37.48;100652.38;5028526;27;97371;-73
2023/04/23 01:05:36;;;;;;;1.00;0.90;;;;;;;22.54;37.28;100649.00;5018788;27;96747;-74
2023/04/23 01:08:03;;;;;;;0.98;0.80;;;;;;;22.56;37.23;100649.66;5011668;27;96797;-74
2023/04/23 01:10:31;;;;;;;1.02;0.93;;;;;;;22.57;37.40;100648.59;5025274;27;98150;-72
2023/04/23 01:12:58;;;;;;;1.05;0.98;;;;;;;22.57;37.43;100651.34;5028965;27;98351;-74
2023/04/23 01:15:25;;;;;;;1.10;1.00;;;;;;;22.58;37.44;100643.97;5013803;27;96794;-73
2023/04/23 01:17:52;;;;;;;0.98;0.80;;;;;;;22.58;37.67;100654.94;5019618;27;97254;-74
2023/04/23 01:20:19;;;;;;;0.80;0.80;;;;;;;22.58;37.44;100647.56;5020651;27;96873;-74
2023/04/23 01:22:45;;;;;;;1.02;0.90;;;;;;;22.58;37.62;100636.63;5023664;27;97396;-74
2023/04/23 01:25:12;;;;;;;1.08;0.90;;;;;;;22.59;37.54;100638.31;5018759;27;99020;-74
2023/04/23 01:27:39;;;;;;;0.70;0.70;;;;;;;22.59;37.28;100643.78;5018060;27;96829;-74
2023/04/23 01:30:07;;;;;;;1.00;0.90;;;;;;;22.60;37.50;100636.44;5016980;27;97096;-74
2023/04/23 01:32:34;;;;;;;1.30;1.20;;;;;;;22.60;37.18;100628.22;5012907;27;97800;-73
2023/04/23 01:35:03;;;;;;;1.15;0.90;;;;;;;22.60;37.44;100628.22;5017913;27;97238;-74
2023/04/23 01:37:30;;;;;;;1.10;0.90;;;;;;;22.60;37.25;100633.69;5024707;27;97290;-73
2023/04/23 01:39:57;;;;;;;1.15;1.00;;;;;;;22.61;37.47;100635.38;5024360;27;96754;-74
2023/04/23 01:42:24;;;;;;;1.10;1.00;;;;;;;22.60;37.32;100628.22;5020864;27;97015;-74
2023/04/23 01:44:52;;;;;;;0.98;0.88;;;;;;;22.60;37.24;100633.69;5024464;27;99568;-74
2023/04/23 01:47:19;;;;;;;1.10;1.00;;;;;;;22.60;37.56;100623.59;4997813;27;96968;-74
2023/04/23 01:49:46;;;;;;;0.90;0.90;;;;;;;22.60;37.44;100622.75;4996804;27;96787;-74
2023/04/23 01:52:13;;;;;;;1.00;0.90;;;;;;;22.60;37.44;100623.59;5016777;27;96819;-74
2023/04/23 01:54:39;;;;;;;1.10;1.00;;;;;;;22.61;37.32;100625.28;5018575;27;97424;-74
2023/04/23 01:57:06;;;;;;;1.15;1.00;;;;;;;22.60;37.36;100622.75;5016825;27;97003;-74
2023/04/23 01:59:33;;;;;;;1.10;1.00;;;;;;;22.60;37.18;100623.59;5018271;27;96823;-73
2023/04/23 02:02:00;;;;;;;1.10;1.00;;;;;;;22.59;37.36;100618.31;5009308;27;99263;-74
2023/04/23 02:04:28;;;;;;;1.13;1.02;;;;;;;22.60;37.07;100620.00;5005567;27;99521;-73
2023/04/23 02:06:55;;;;;;;1.10;1.00;;;;;;;22.60;37.24;100620.00;5003349;27;97397;-74
2023/04/23 02:09:21;;;;;;;1.08;0.93;;;;;;;22.59;37.51;100624.63;5022738;27;96752;-73
2023/04/23 02:11:48;;;;;;;1.20;0.90;;;;;;;22.59;37.26;100618.31;5018529;27;97627;-73
2023/04/23 02:14:16;;;;;;;1.00;0.90;;;;;;;22.59;37.35;100613.69;5020519;27;97267;-73
2023/04/23 02:16:43;;;;;;;1.05;0.90;;;;;;;22.59;37.10;100619.16;5013783;27;97137;-73
2023/04/23 02:19:11;;;;;;;1.08;0.98;;;;;;;22.59;37.41;100610.94;5018262;27;96881;-73
2023/04/23 02:21:41;;;;;;;0.82;0.82;;;;;;;22.59;37.26;100607.34;5014680;27;97326;-73
2023/04/23 02:24:08;;;;;;;1.23;1.13;;;;;;;22.59;37.41;100607.34;5021277;27;96968;-75
2023/04/23 02:26:35;;;;;;;1.30;1.20;;;;;;;22.59;37.43;100605.47;5019375;27;97131;-73
2023/04/23 02:29:02;;;;;;;1.20;1.10;;;;;;;22.59;37.39;100604.63;5014233;27;96897;-74
2023/04/23 02:31:28;;;;;;;1.10;1.00;;;;;;;22.59;37.44;100615.56;5020951;27;97989;-74
2023/04/23 02:33:55;;;;;;;1.02;0.90;;;;;;;22.59;37.30;100610.09;5019371;27;96825;-73
2023/04/23 02:36:21;;;;;;;1.08;0.98;;;;;;;22.58;37.43;100603.78;4999268;27;97019;-74
2023/04/23 02:38:49;;;;;;;0.93;0.85;;;;;;;22.59;37.38;100604.63;5028018;27;96833;-74
2023/04/23 02:41:16;;;;;;;1.10;1.00;;;;;;;22.58;37.31;100609.25;5017510;27;100011;-74
2023/04/23 02:43:43;;;;;;;1.00;0.90;;;;;;;22.60;37.13;100604.44;5022821;27;97492;-74
2023/04/23 02:46:09;;;;;;;1.10;1.00;;;;;;;22.59;37.29;100601.88;5018478;27;96737;-73
2023/04/23 02:48:38;;;;;;;1.10;0.98;;;;;;;22.59;37.43;100594.53;5014760;27;96825;-74
2023/04/23 02:51:06;;;;;;;1.02;0.90;;;;;;;22.59;37.37;100599.16;4997614;27;99079;-74
2023/04/23 02:53:32;;;;;;;1.00;0.90;;;;;;;22.59;37.44;100593.69;5012371;27;98360;-74
2023/04/23 02:56:00;;;;;;;1.20;1.05;;;;;;;22.58;37.30;100584.63;5019107;27;97057;-74
2023/04/23 02:58:28;;;;;;;1.10;0.90;;;;;;;22.59;37.42;100586.31;5019966;27;96863;-74
2023/04/23 03:00:58;;;;;;;0.98;0.88;;;;;;;22.58;37.31;100598.31;5002553;27;97753;-74
2023/04/23 03:03:30;;;;;;;0.90;0.80;;;;;;;22.59;37.32;100597.25;5005250;27;99447;-74
2023/04/23 03:05:59;;;;;;;0.90;0.90;;;;;;;22.58;37.50;100597.44;5009823;27;96756;-74
2023/04/23 03:08:26;;;;;;;1.30;1.13;;;;;;;22.58;37.44;100603.78;5016977;27;96676;-74
2023/04/23 03:10:53;;;;;;;1.10;1.00;;;;;;;22.58;37.29;100598.31;5015708;27;96769;-74
2023/04/23 03:13:20;;;;;;;1.08;0.90;;;;;;;22.59;37.36;100604.63;5011387;27;99525;-74
2023/04/23 03:15:47;;;;;;;1.17;0.98;;;;;;;22.58;37.18;100598.31;5011972;27;99078;-74
2023/04/23 03:18:13;;;;;;;1.10;0.90;;;;;;;22.58;37.58;100594.72;5019835;27;96747;-74
2023/04/23 03:20:40;;;;;;;1.20;1.10;;;;;;;22.59;37.62;100599.16;5016796;27;101115;-72
2023/04/23 03:23:06;;;;;;;1.10;1.00;;;;;;;22.59;37.47;100601.88;5013792;27;98722;-75
2023/04/23 03:25:34;;;;;;;1.20;1.00;;;;;;;22.59;37.13;100590.94;5026956;27;97143;-74
2023/04/23 03:28:00;;;;;;;1.25;1.10;;;;;;;22.59;37.39;100588.19;5016160;27;96902;-73
2023/04/23 03:30:28;;;;;;;1.40;1.15;;;;;;;22.58;37.26;100584.63;5013241;27;98935;-74
2023/04/23 03:32:55;;;;;;;1.25;1.05;;;;;;;22.59;37.22;100586.31;5012928;27;97087;-73
2023/04/23 03:35:23;;;;;;;1.27;1.10;;;;;;;22.59;37.32;100582.72;5020913;27;96621;-73
2023/04/23 03:37:51;;;;;;;1.20;1.10;;;;;;;22.59;37.36;100578.09;5016432;27;96923;-74
2023/04/23 03:40:20;;;;;;;1.33;1.10;;;;;;;22.59;37.14;100580.00;4996405;27;100149;-74
2023/04/23 03:42:50;;;;;;;1.00;0.90;;;;;;;22.59;37.50;100571.78;4998197;27;97605;-74
2023/04/23 03:45:21;;;;;;;1.10;1.00;;;;;;;22.58;37.45;100573.66;5021191;27;96695;-74
2023/04/23 03:47:48;;;;;;;1.30;1.15;;;;;;;22.59;37.66;100572.63;5014186;27;96917;-74
2023/04/23 03:50:16;;;;;;;1.10;1.00;;;;;;;22.59;37.39;100572.63;5016178;27;96895;-74
2023/04/23 03:52:46;;;;;;;1.20;1.00;;;;;;;22.59;37.26;100569.03;4994952;27;97247;-74
2023/04/23 03:55:23;;;;;;;1.20;1.08;;;;;;;22.59;37.60;100571.78;5011967;27;96816;-74
2023/04/23 03:57:50;;;;;;;1.10;0.98;;;;;;;22.59;37.20;100563.56;5006154;27;96954;-74
2023/04/23 04:00:20;;;;;;;1.15;1.05;;;;;;;22.59;37.44;100566.31;5015794;27;98090;-74
2023/04/23 04:02:46;;;;;;;1.10;1.00;;;;;;;22.58;37.14;100570.94;5017808;27;97368;-74
2023/04/23 04:05:13;;;;;;;1.30;0.98;;;;;;;22.59;37.17;100575.38;5013518;27;97102;-74
2023/04/23 04:07:41;;;;;;;1.08;0.98;;;;;;;22.58;37.48;100565.47;5014397;27;97576;-74
2023/04/23 04:10:08;;;;;;;1.88;1.30;;;;;;;22.59;37.66;100575.38;5014630;27;96878;-74
2023/04/23 04:12:35;;;;;;;1.27;1.08;;;;;;;22.58;37.17;100570.94;5017221;27;97213;-74
2023/04/23 04:15:03;;;;;;;1.10;0.90;;;;;;;22.58;37.10;100576.41;5006412;27;96735;-74
2023/04/23 04:17:30;;;;;;;1.20;1.10;;;;;;;22.58;37.33;100565.47;5018097;27;97062;-73
2023/04/23 04:19:56;;;;;;;1.27;1.00;;;;;;;22.58;37.31;100572.81;5016226;27;97404;-74
2023/04/23 04:22:23;;;;;;;1.10;0.90;;;;;;;22.58;37.60;100570.94;5017977;27;97466;-74
2023/04/23 04:24:51;;;;;;;1.10;1.00;;;;;;;22.58;37.44;100570.94;4998755;27;97219;-74
2023/04/23 04:27:18;;;;;;;1.13;1.02;;;;;;;22.58;37.32;100565.47;5020877;27;96995;-74
2023/04/23 04:29:44;;;;;;;1.83;1.00;;;;;;;22.58;37.46;100572.81;5013441;27;97339;-74
2023/04/23 04:32:12;;;;;;;1.13;1.02;;;;;;;22.57;37.33;100566.50;5011495;27;96796;-74
2023/04/23 04:34:39;;;;;;;1.23;1.10;;;;;;;22.58;37.50;100567.34;5017154;27;96691;-74
2023/04/23 04:37:06;;;;;;;1.23;1.13;;;;;;;22.57;37.21;100571.13;5017118;27;96685;-74
2023/04/23 04:39:33;;;;;;;0.93;0.90;;;;;;;22.57;37.37;100577.44;5020283;27;99289;-72
2023/04/23 04:42:01;;;;;;;1.17;1.08;;;;;;;22.57;37.39;100569.25;5021099;27;96752;-75
2023/04/23 04:44:29;;;;;;;1.02;0.90;;;;;;;22.57;37.54;100573.88;5022193;27;96976;-73
2023/04/23 04:46:55;;;;;;;1.10;1.00;;;;;;;22.58;37.42;100581.03;5020588;27;97332;-74
2023/04/23 04:49:22;;;;;;;1.33;1.20;;;;;;;22.57;37.40;100584.81;5019272;27;99874;-73
2023/04/23 04:51:49;;;;;;;1.00;0.90;;;;;;;22.57;37.51;100591.13;5019065;27;96963;-74
2023/04/23 04:54:15;;;;;;;1.02;0.93;;;;;;;22.58;37.38;100589.25;5026455;27;96913;-74
2023/04/23 04:56:42;;;;;;;1.05;1.00;;;;;;;22.57;37.43;100574.72;5019642;27;96770;-73
2023/04/23 04:59:08;;;;;;;1.27;1.17;;;;;;;22.57;37.50;100579.34;5025815;27;97553;-74
2023/04/23 05:01:36;;;;;;;1.02;0.93;;;;;;;22.57;37.56;100579.34;5022327;27;97857;-74
2023/04/23 05:04:02;;;;;;;1.10;1.00;;;;;;;22.56;37.61;100583.97;5016294;27;96700;-74
2023/04/23 05:06:31;;;;;;;1.17;1.08;;;;;;;22.57;37.61;100577.44;5015714;27;96899;-74
2023/04/23 05:08:58;;;;;;;1.15;1.05;;;;;;;22.58;37.12;100581.88;5016303;27;96788;-74
2023/04/23 05:11:24;;;;;;;1.17;1.02;;;;;;;22.57;37.25;100571.97;5021884;27;98752;-74
2023/04/23 05:13:51;;;;;;;1.40;1.20;;;;;;;22.57;37.50;100563.75;5020300;27;97017;-74
2023/04/23 05:16:18;;;;;;;1.23;1.13;;;;;;;22.58;37.35;100570.94;5022727;27;97042;-75
2023/04/23 05:18:45;;;;;;;1.10;1.00;;;;;;;22.58;37.09;100581.03;5016715;27;97676;-74
2023/04/23 05:21:12;;;;;;;1.38;1.20;;;;;;;22.58;37.36;100575.56;5011705;27;96543;-74
2023/04/23 05:23:38;;;;;;;1.30;1.10;;;;;;;22.58;37.52;100581.03;5015557;27;97239;-74
2023/04/23 05:26:05;;;;;;;1.13;1.02;;;;;;;22.58;37.19;100575.56;5016581;27;97321;-74
2023/04/23 05:28:32;;;;;;;1.27;1.17;;;;;;;22.58;37.47;100584.63;5021182;27;96867;-74
2023/04/23 05:30:58;;;;;;;1.10;1.00;;;;;;;22.58;37.50;100584.63;5012957;27;96757;-74
2023/04/23 05:33:25;;;;;;;1.50;1.40;;;;;;;22.59;37.43;100583.56;5024817;27;97328;-74
2023/04/23 05:35:58;;;;;;;1.20;1.10;;;;;;;22.59;37.50;100580.00;5031074;28;96836;-74
2023/04/23 05:38:25;;;;;;;1.10;1.00;;;;;;;22.57;37.34;100577.44;5011743;27;97763;-73
2023/04/23 05:40:52;;;;;;;1.30;1.20;;;;;;;22.58;37.44;100576.41;5015224;28;97494;-74
2023/04/23 05:43:18;;;;;;;1.02;0.93;;;;;;;22.58;37.63;100576.41;5012357;28;96749;-74
2023/04/23 05:45:45;;;;;;;1.05;0.95;;;;;;;22.58;37.51;100575.56;5014036;28;97204;-74
2023/04/23 05:48:12;;;;;;;1.35;1.05;;;;;;;22.58;37.23;100581.03;5010920;28;99758;-74
2023/04/23 05:50:38;;;;;;;1.15;1.02;;;;;;;22.58;37.36;100576.41;5012050;28;97210;-74
2023/04/23 05:53:05;;;;;;;1.27;1.00;;;;;;;22.59;37.11;100585.47;5010009;28;96884;-73
2023/04/23 05:55:32;;;;;;;1.00;0.90;;;;;;;22.58;37.54;100583.78;5015556;28;96854;-73
2023/04/23 05:57:58;;;;;;;1.10;1.00;;;;;;;22.59;37.13;100578.09;5012454;28;97463;-73
2023/04/23 06:00:25;;;;;;;0.95;0.85;;;;;;;22.59;37.21;100582.72;5023958;28;97542;-74
2023/04/23 06:02:52;;;;;;;1.00;0.90;;;;;;;22.58;37.24;100576.41;5012432;28;96892;-74
2023/04/23 06:05:18;;;;;;;1.17;1.00;;;;;;;22.58;37.29;100578.28;5013189;28;96838;-74
2023/04/23 06:07:45;;;;;;;1.20;1.10;;;;;;;22.58;37.38;100567.34;5015693;28;98267;-74
2023/04/23 06:10:12;;;;;;;1.50;0.98;;;;;;;22.58;37.32;100568.19;5012686;28;96850;-73
2023/04/23 06:12:40;;;;;;;1.10;1.00;;;;;;;22.58;37.29;100570.09;5012894;28;96777;-73
2023/04/23 06:15:08;;;;;;;1.10;1.00;;;;;;;22.58;37.05;100572.81;4997641;28;97273;-73
2023/04/23 06:17:35;;;;;;;1.33;1.00;;;;;;;22.56;37.37;100562.06;5011303;28;96843;-73
2023/04/23 06:20:03;;;;;;;1.10;1.00;;;;;;;22.56;37.52;100567.53;4993061;28;99225;-74
2023/04/23 06:22:31;;;;;;;1.20;1.10;;;;;;;22.56;37.52;100570.28;4993230;28;96962;-73
2023/04/23 06:24:58;;;;;;;1.00;0.90;;;;;;;22.56;37.12;100575.75;5028105;28;97540;-74
2023/04/23 06:27:25;;;;;;;1.10;0.90;;;;;;;22.56;37.39;100575.75;5017888;28;98171;-73
2023/04/23 06:29:57;;;;;;;1.10;1.00;;;;;;;22.55;37.25;100574.06;5027999;28;97180;-74
2023/04/23 06:32:23;;;;;;;1.15;1.05;;;;;;;22.55;37.31;100565.00;5017191;27;97149;-74
2023/04/23 06:34:50;;;;;;;1.05;0.95;;;;;;;22.55;37.77;100560.38;5011255;28;97105;-74
2023/04/23 06:37:27;;;;;;;1.23;1.10;;;;;;;22.56;37.31;100559.31;4994884;28;97363;-74
2023/04/23 06:39:55;;;;;;;0.95;0.90;;;;;;;22.54;37.35;100555.94;5011328;28;97501;-74
2023/04/23 06:42:22;;;;;;;0.85;0.80;;;;;;;22.53;37.19;100556.97;5010166;28;96644;-74
2023/04/23 06:45:03;;;;;;;1.17;1.08;;;;;;;22.54;37.28;100555.09;5014300;28;96721;-74
2023/04/23 06:47:32;;;;;;;1.10;1.00;;;;;;;22.54;37.29;100550.47;4996165;28;99240;-74
2023/04/23 06:49:59;;;;;;;1.05;0.95;;;;;;;22.54;37.12;100547.72;5009566;28;99997;-73
2023/04/23 06:52:26;;;;;;;1.40;1.00;;;;;;;22.55;37.63;100540.38;5019772;28;97505;-74
2023/04/23 06:54:52;;;;;;;1.20;1.10;;;;;;;22.54;37.55;100538.66;5019768;28;96622;-74
2023/04/23 06:57:20;;;;;;;1.23;1.13;;;;;;;22.53;37.21;100537.81;5022279;28;96823;-73
2023/04/23 06:59:47;;;;;;;1.10;1.00;;;;;;;22.53;37.21;100537.81;5022501;28;96897;-74
2023/04/23 07:02:14;;;;;;;1.20;1.10;;;;;;;22.53;37.28;100535.09;5013249;27;97138;-73
2023/04/23 07:04:41;;;;;;;0.95;0.85;;;;;;;22.53;37.47;100540.56;5020092;27;97285;-74
2023/04/23 07:07:08;;;;;;;0.90;0.90;;;;;;;22.54;37.33;100535.94;5016689;27;97464;-74
2023/04/23 07:09:35;;;;;;;1.20;1.10;;;;;;;22.52;37.25;100531.50;5012305;27;96813;-74
2023/04/23 07:12:02;;;;;;;1.10;1.00;;;;;;;22.52;37.47;100533.38;5017149;28;97164;-74
2023/04/23 07:14:28;;;;;;;1.33;1.20;;;;;;;22.53;37.29;100535.09;5020521;27;96810;-73
2023/04/23 07:16:55;;;;;;;1.38;1.08;;;;;;;22.52;37.02;100527.91;4996675;28;96922;-74
2023/04/23 07:19:21;;;;;;;1.20;1.10;;;;;;;22.53;37.54;100529.63;5020885;28;96718;-72
2023/04/23 07:21:48;;;;;;;0.93;0.90;;;;;;;22.52;37.25;100527.91;5005414;27;96774;-73
2023/04/23 07:24:15;;;;;;;0.80;0.80;;;;;;;22.52;37.32;100527.91;5021360;27;97004;-74
2023/04/23 07:26:42;;;;;;;1.15;1.05;;;;;;;22.51;37.57;100532.53;5017422;28;96753;-73
2023/04/23 07:29:12;;;;;;;1.05;0.90;;;;;;;22.52;37.30;100525.19;5015174;28;98559;-74
2023/04/23 07:31:42;;;;;;;1.30;1.20;;;;;;;22.52;37.41;100526.03;5003955;28;96779;-72
2023/04/23 07:34:09;;;;;;;1.10;0.98;;;;;;;22.51;37.29;100524.34;5015746;27;96885;-74
2023/04/23 07:36:36;;;;;;;1.13;0.95;;;;;;;22.52;37.40;100527.91;5023420;28;97137;-74
2023/04/23 07:39:04;;;;;;;1.15;1.05;;;;;;;22.52;37.22;100526.03;5019945;28;97729;-74
2023/04/23 07:41:31;;;;;;;1.25;1.15;;;;;;;22.52;37.33;100530.66;5003549;28;96684;-73
2023/04/23 07:43:58;;;;;;;1.17;1.05;;;;;;;22.52;37.37;100526.03;4998062;28;96787;-74
2023/04/23 07:46:24;;;;;;;1.10;1.00;;;;;;;22.53;37.15;100529.63;5001221;28;98937;-73
2023/04/23 07:48:51;;;;;;;1.30;1.20;;;;;;;22.51;37.29;100524.34;5009697;28;98885;-74
2023/04/23 07:51:18;;;;;;;1.02;0.90;;;;;;;22.51;37.41;100524.34;4996256;28;97368;-74
2023/04/23 07:53:45;;;;;;;0.95;0.82;;;;;;;22.52;37.32;100519.72;5014369;28;96970;-74
2023/04/23 07:56:13;;;;;;;1.17;0.98;;;;;;;22.50;37.26;100519.91;5022607;27;97146;-74
2023/04/23 07:58:39;;;;;;;1.15;1.05;;;;;;;22.52;37.34;100511.50;5003169;28;98928;-73
2023/04/23 08:01:06;;;;;;;1.23;0.80;;;;;;;22.52;37.32;100516.97;5027526;28;96804;-75
2023/04/23 08:03:33;;;;;;;1.40;1.10;;;;;;;22.51;37.08;100510.66;5019777;27;96855;-73
2023/04/23 08:06:00;;;;;;;1.00;0.88;;;;;;;22.52;37.05;100509.59;5024589;27;97068;-74
2023/04/23 08:08:27;;;;;;;1.15;1.05;;;;;;;22.53;37.10;100513.19;5018252;28;97086;-74
2023/04/23 08:10:53;;;;;;;1.35;1.23;;;;;;;22.54;37.40;100508.56;5005795;28;97091;-74
2023/04/23 08:13:20;;;;;;;1.17;1.08;;;;;;;22.52;37.44;100506.88;5008493;27;97023;-73
2023/04/23 08:15:47;;;;;;;1.05;0.95;;;;;;;22.53;37.43;100507.72;5008401;28;96901;-73
2023/04/23 08:18:14;;;;;;;1.30;1.08;;;;;;;22.52;37.28;100500.56;5016545;27;100752;-74
2023/04/23 08:20:41;;;;;;;1.15;1.05;;;;;;;22.53;37.43;100507.72;5019967;28;96680;-73
2023/04/23 08:23:07;;;;;;;1.00;0.90;;;;;;;22.54;37.34;100511.31;5021648;27;96843;-73
2023/04/23 08:25:34;;;;;;;1.10;1.00;;;;;;;22.53;37.34;100494.03;5015585;27;98936;-74
2023/04/23 08:28:01;;;;;;;1.00;0.90;;;;;;;22.53;37.14;100496.78;5021309;27;98110;-73
2023/04/23 08:30:27;;;;;;;1.20;1.00;;;;;;;22.52;37.14;100495.06;5026541;27;96727;-73
2023/04/23 08:32:55;;;;;;;1.10;1.00;;;;;;;22.53;37.38;100496.78;5004459;28;96680;-74
2023/04/23 08:35:23;;;;;;;1.30;1.00;;;;;;;22.54;37.52;100497.63;5014035;27;97023;-74
2023/04/23 08:37:49;;;;;;;1.10;1.00;;;;;;;22.53;37.12;100499.50;5023868;27;97214;-73
2023/04/23 08:40:16;;;;;;;0.88;0.80;;;;;;;22.53;37.52;100504.97;5030366;27;96638;-74
2023/04/23 08:42:54;;;;;;;1.10;1.00;;;;;;;22.54;37.47;100494.88;5019641;27;96977;-74
2023/04/23 08:45:21;;;;;;;1.10;0.93;;;;;;;22.52;37.58;100495.06;5020171;27;98861;-74
2023/04/23 08:47:48;;;;;;;1.00;0.90;;;;;;;22.52;37.41;100490.44;5021728;27;97847;-73
2023/04/23 08:50:16;;;;;;;1.00;0.90;;;;;;;22.53;37.47;100496.78;5023547;27;97026;-73
2023/04/23 08:52:55;;;;;;;0.98;0.88;;;;;;;22.54;37.26;100484.78;5007111;27;96832;-73
2023/04/23 08:55:22;;;;;;;0.80;0.80;;;;;;;22.52;37.34;100484.97;5016889;28;96684;-72
2023/04/23 08:57:50;;;;;;;1.08;0.90;;;;;;;22.53;37.38;100485.81;5016959;28;98806;-73
2023/04/23 09:00:21;;;;;;;1.05;0.90;;;;;;;22.54;37.43;100486.66;5013267;28;97188;-73
2023/04/23 09:02:49;;;;;;;1.20;0.88;;;;;;;22.54;37.37;100492.16;4995737;28;97090;-73
2023/04/23 09:05:15;;;;;;;1.10;1.00;;;;;;;22.54;37.26;100492.16;5013193;28;97856;-74
2023/04/23 09:07:42;;;;;;;1.20;1.10;;;;;;;22.55;37.32;100493.84;5013371;28;97474;-73
2023/04/23 09:10:11;;;;;;;1.02;0.95;;;;;;;22.54;37.44;100483.94;5024523;28;97139;-74
2023/04/23 09:12:42;;;;;;;0.90;0.80;;;;;;;22.55;37.45;100471.94;5013345;28;96796;-74
2023/04/23 09:15:10;;;;;;;0.98;0.88;;;;;;;22.54;37.24;100473.84;5011037;28;98098;-74
2023/04/23 09:17:42;;;;;;;1.10;1.00;;;;;;;22.55;37.44;100478.25;5012181;28;96818;-74
2023/04/23 09:20:10;;;;;;;1.10;1.00;;;;;;;22.55;37.29;100477.41;5017450;28;98526;-74
2023/04/23 09:22:39;;;;;;;1.00;0.90;;;;;;;22.56;37.32;100479.13;5004522;28;96477;-74
2023/04/23 09:25:10;;;;;;;1.00;0.82;;;;;;;22.57;37.30;100483.53;5013414;28;97136;-74
2023/04/23 09:27:38;;;;;;;0.80;0.80;;;;;;;22.58;37.23;100482.50;5013896;28;97553;-74
2023/04/23 09:30:06;;;;;;;1.23;1.13;;;;;;;22.57;37.38;100475.34;5013587;28;97042;-74
2023/04/23 09:32:34;;;;;;;0.95;0.77;;;;;;;22.58;37.48;100471.56;5014227;28;97223;-74
2023/04/23 09:35:06;;;;;;;1.52;1.05;;;;;;;22.58;37.21;100469.66;5015616;27;97891;-74
2023/04/23 09:37:33;;;;;;;1.15;1.00;;;;;;;22.58;37.48;100477.88;5007320;28;96758;-74
2023/04/23 09:40:03;;;;;;;0.88;0.80;;;;;;;22.59;37.05;100475.97;5027210;27;96962;-74
2023/04/23 09:42:31;;;;;;;1.00;0.80;;;;;;;22.58;37.08;100464.19;5017524;27;99560;-73
2023/04/23 09:45:11;;;;;;;1.23;0.98;;;;;;;22.59;37.33;100471.34;5016514;27;100944;-72
2023/04/23 09:47:39;;;;;;;1.00;0.90;;;;;;;22.58;37.20;100471.56;5018976;28;99029;-74
2023/04/23 09:50:09;;;;;;;0.90;0.75;;;;;;;22.59;37.08;100476.84;5017592;28;96703;-74
2023/04/23 09:52:39;;;;;;;1.20;1.00;;;;;;;22.61;37.46;100474.75;5014188;28;97448;-74
2023/04/23 09:55:07;;;;;;;1.20;1.00;;;;;;;22.61;37.28;100474.75;5024754;28;96827;-74
2023/04/23 09:57:40;;;;;;;1.10;0.73;;;;;;;22.62;37.30;100464.66;5022625;28;97672;-74
2023/04/23 10:00:19;;;;;;;1.10;0.98;;;;;;;22.63;37.40;100469.91;5024544;28;96804;-74
2023/04/23 10:02:48;;;;;;;1.10;1.00;;;;;;;22.62;37.16;100459.16;5024365;28;96722;-75
2023/04/23 10:05:20;;;;;;;1.00;0.90;;;;;;;22.63;37.38;100452.66;5024451;28;98288;-73
2023/04/23 10:07:55;;;;;;;0.98;0.90;;;;;;;22.63;37.11;100448.03;5015659;28;97884;-74
2023/04/23 10:10:22;;;;;;;0.90;0.75;;;;;;;22.63;37.43;100448.03;5024571;28;97692;-74
2023/04/23 10:12:55;;;;;;;1.38;1.00;;;;;;;22.64;37.04;100449.72;5020498;27;96916;-74
2023/04/23 10:15:25;;;;;;;1.00;0.90;;;;;;;22.64;37.36;100448.88;5019960;28;98505;-73
2023/04/23 10:17:53;;;;;;;1.00;0.90;;;;;;;22.65;37.48;100451.41;5024724;28;99472;-72
2023/04/23 10:20:21;;;;;;;0.90;0.80;;;;;;;22.65;37.41;100439.63;5025729;28;96621;-74
2023/04/23 10:22:49;;;;;;;0.80;0.80;;;;;;;22.66;37.13;100441.31;5019063;28;96755;-73
2023/04/23 10:25:18;;;;;;;0.93;0.80;;;;;;;22.67;37.13;100448.47;5016001;28;96824;-74
2023/04/23 10:27:48;;;;;;;1.10;0.88;;;;;;;22.68;37.39;100441.94;5019830;28;97274;-74
2023/04/23 10:30:21;;;;;;;0.98;0.85;;;;;;;22.68;37.34;100439.22;5004947;28;96770;-73
2023/04/23 10:32:48;;;;;;;1.10;0.80;;;;;;;22.67;37.33;100435.63;5021883;28;96727;-74
2023/04/23 10:35:15;;;;;;;1.13;0.98;;;;;;;22.69;37.14;100439.03;5016088;28;97821;-74
2023/04/23 10:37:44;;;;;;;1.27;1.00;;;;;;;22.70;37.01;100437.97;5015730;28;96804;-73
2023/04/23 10:40:17;;;;;;;0.98;0.88;;;;;;;22.70;37.18;100432.50;5021847;28;96684;-74
2023/04/23 10:42:45;;;;;;;1.10;1.00;;;;;;;22.70;36.93;100427.03;5023669;28;97401;-75
2023/04/23 10:45:13;;;;;;;1.13;1.00;;;;;;;22.70;37.13;100421.56;5022327;28;98293;-74
2023/04/23 10:47:51;;;;;;;0.90;0.88;;;;;;;22.70;37.31;100418.81;5022197;28;96826;-75
2023/04/23 10:50:29;;;;;;;0.80;0.70;;;;;;;22.73;37.10;100406.63;5019320;28;96960;-74
2023/04/23 10:52:56;;;;;;;0.90;0.90;;;;;;;22.71;37.17;100409.56;5019803;27;96808;-74
2023/04/23 10:55:26;;;;;;;1.00;0.90;;;;;;;22.72;37.42;100411.25;5020410;28;98556;-74
2023/04/23 10:58:01;;;;;;;1.40;0.90;;;;;;;22.72;37.07;100408.50;5018956;28;97443;-74
2023/04/23 11:00:49;;;;;;;0.90;0.80;;;;;;;22.73;37.13;100401.16;5014227;28;96921;-74
2023/04/23 11:03:38;;;;;;;1.20;1.00;;;;;;;22.73;37.36;100401.16;5024559;28;96812;-74
2023/04/23 11:06:19;;;;;;;1.17;0.90;;;;;;;22.72;37.16;100400.31;5022292;28;97849;-74
2023/04/23 11:08:52;;;;;;;0.90;0.80;;;;;;;22.72;37.05;100391.25;5022980;28;97750;-74
2023/04/23 11:11:38;;;;;;;1.10;0.95;;;;;;;22.72;37.08;100394.81;5013930;27;98596;-74
2023/04/23 11:14:10;;;;;;;;;;;;;;;22.67;37.31;100401.94;5023760;28;96814;-73
2023/04/23 11:16:36;;;;;;;0.80;0.80;;;;;;;22.68;37.29;100384.47;5018672;28;97014;-75
2023/04/23 11:19:11;;;;;;;0.73;0.70;;;;;;;22.70;37.17;100385.97;5017998;28;96868;-73
2023/04/23 11:21:58;;;;;;;0.98;0.90;;;;;;;22.72;37.38;100377.56;5022846;28;97026;-74
2023/04/23 11:24:36;;;;;;;1.10;1.00;;;;;;;22.72;37.26;100363.88;5015743;28;96797;-73
2023/04/23 11:27:06;;;;;;;1.00;0.90;;;;;;;22.73;37.33;100376.50;5017439;27;98418;-73
2023/04/23 11:29:33;;;;;;;0.80;0.80;;;;;;;22.73;37.26;100374.63;5012012;28;97094;-73
2023/04/23 11:32:00;;;;;;;1.02;0.90;;;;;;;22.74;37.22;100368.09;5015325;28;97267;-74